createdAt,value
2022-12-24T00:01:02.672Z,13.68
2022-12-24T00:03:29.566Z,10.48
2022-12-24T00:05:56.559Z,11.55
2022-12-24T00:08:23.600Z,9.48
2022-12-24T00:10:53.910Z,9.25
2022-12-24T00:13:21.277Z,8.90
2022-12-24T00:15:48.768Z,8.85
2022-12-24T00:18:15.764Z,11.60
2022-12-24T00:20:45.771Z,8.60
2022-12-24T00:23:12.566Z,10.20
2022-12-24T00:25:39.210Z,10.32
2022-12-24T00:28:16.957Z,7.40
2022-12-24T00:30:43.959Z,7.50
2022-12-24T00:33:11.111Z,8.90
2022-12-24T00:35:39.543Z,8.65
2022-12-24T00:38:06.846Z,7.35
2022-12-24T00:40:33.918Z,8.63
2022-12-24T00:43:00.626Z,6.97
2022-12-24T00:45:28.044Z,7.75
2022-12-24T00:47:54.866Z,7.32
2022-12-24T00:50:21.748Z,6.40
2022-12-24T00:52:48.727Z,5.15
2022-12-24T00:55:15.485Z,6.30
2022-12-24T00:57:42.146Z,9.38
2022-12-24T01:00:09.839Z,5.82
2022-12-24T01:02:36.867Z,6.80
2022-12-24T01:05:12.857Z,5.30
2022-12-24T01:07:42.296Z,5.82
2022-12-24T01:10:09.868Z,4.55
2022-12-24T01:12:38.415Z,5.93
2022-12-24T01:15:05.810Z,3.95
2022-12-24T01:17:34.375Z,6.10
2022-12-24T01:20:01.637Z,5.00
2022-12-24T01:22:28.531Z,8.05
2022-12-24T01:24:55.257Z,8.88
2022-12-24T01:27:22.007Z,8.27
2022-12-24T01:29:48.723Z,11.82
2022-12-24T01:32:15.471Z,13.20
2022-12-24T01:34:42.336Z,9.15
2022-12-24T01:37:09.093Z,9.45
2022-12-24T01:39:35.854Z,11.65
2022-12-24T01:42:21.243Z,9.60
2022-12-24T01:44:51.498Z,11.52
2022-12-24T01:47:22.359Z,13.63
2022-12-24T01:49:57.071Z,12.63
2022-12-24T01:52:28.592Z,19.50
2022-12-24T01:55:06.928Z,19.80
2022-12-24T01:57:56.769Z,19.52
2022-12-24T02:00:23.614Z,22.52
2022-12-24T02:02:53.072Z,23.52
2022-12-24T02:05:24.955Z,23.77
2022-12-24T02:07:52.111Z,26.93
2022-12-24T02:10:19.033Z,23.20
2022-12-24T02:12:47.135Z,29.38
2022-12-24T02:15:20.092Z,28.02
2022-12-24T02:18:14.685Z,30.33
2022-12-24T02:21:06.862Z,26.27
2022-12-24T02:24:28.233Z,31.60
2022-12-24T02:27:10.868Z,31.45
2022-12-24T02:30:00.979Z,23.52
2022-12-24T02:32:48.566Z,30.90
2022-12-24T02:35:23.962Z,17.17
2022-12-24T02:37:57.632Z,19.20
2022-12-24T02:40:29.527Z,29.73
2022-12-24T02:43:00.857Z,27.58
2022-12-24T02:45:31.861Z,29.40
2022-12-24T02:47:59.733Z,23.90
2022-12-24T02:50:27.129Z,23.20
2022-12-24T02:52:53.971Z,24.77
2022-12-24T02:55:34.520Z,28.63
2022-12-24T02:58:04.307Z,21.98
2022-12-24T03:01:17.135Z,18.63
2022-12-24T03:04:08.878Z,16.83
2022-12-24T03:06:55.501Z,26.65
2022-12-24T03:09:38.370Z,27.67
2022-12-24T03:14:36.145Z,31.02
2022-12-24T03:17:04.108Z,24.67
2022-12-24T03:19:32.900Z,32.70
2022-12-24T03:22:02.262Z,16.13
2022-12-24T03:24:28.956Z,29.95
2022-12-24T03:26:56.624Z,22.27
2022-12-24T03:29:23.359Z,23.48
2022-12-24T03:31:53.186Z,21.75
2022-12-24T03:34:20.002Z,28.75
2022-12-24T03:36:48.198Z,25.58
2022-12-24T03:39:15.063Z,26.13
2022-12-24T03:41:41.764Z,23.70
2022-12-24T03:44:08.446Z,32.97
2022-12-24T03:46:35.199Z,25.60
2022-12-24T03:49:01.988Z,36.80
2022-12-24T03:51:28.806Z,32.22
2022-12-24T03:53:56.870Z,27.92
2022-12-24T03:56:24.415Z,27.63
2022-12-24T03:58:51.371Z,26.45
2022-12-24T04:01:18.388Z,25.40
2022-12-24T04:03:45.578Z,20.42
2022-12-24T04:06:17.561Z,33.10
2022-12-24T04:08:44.612Z,26.50
2022-12-24T04:11:13.628Z,32.28
2022-12-24T04:13:40.318Z,27.77
2022-12-24T04:16:10.075Z,23.55
2022-12-24T04:18:37.886Z,28.73
2022-12-24T04:21:05.462Z,21.85
2022-12-24T04:23:33.425Z,28.15
2022-12-24T04:26:01.431Z,26.48
2022-12-24T04:28:31.426Z,35.13
2022-12-24T04:31:03.199Z,33.80
2022-12-24T04:33:30.177Z,26.93
2022-12-24T04:36:01.639Z,34.42
2022-12-24T04:38:29.546Z,23.38
2022-12-24T04:41:05.635Z,27.42
2022-12-24T04:43:32.692Z,30.23
2022-12-24T04:46:11.707Z,32.00
2022-12-24T04:48:38.568Z,33.00
2022-12-24T04:51:06.370Z,30.08
2022-12-24T04:53:34.281Z,29.88
2022-12-24T04:56:01.844Z,30.15
2022-12-24T04:58:29.118Z,24.23
2022-12-24T05:00:56.238Z,30.85
2022-12-24T05:03:23.066Z,27.58
2022-12-24T05:05:49.788Z,25.20
2022-12-24T05:08:16.509Z,20.45
2022-12-24T05:10:43.137Z,31.58
2022-12-24T05:13:09.774Z,31.52
2022-12-24T05:15:36.566Z,34.88
2022-12-24T05:18:03.207Z,29.85
2022-12-24T05:20:29.903Z,29.30
2022-12-24T05:23:15.225Z,34.08
2022-12-24T05:26:08.173Z,30.42
2022-12-24T05:28:34.900Z,27.50
2022-12-24T05:31:01.646Z,27.55
2022-12-24T05:33:28.412Z,27.45
2022-12-24T05:35:55.185Z,26.42
2022-12-24T05:38:21.843Z,30.65
2022-12-24T05:40:48.602Z,33.22
2022-12-24T05:43:15.263Z,28.48
2022-12-24T05:45:41.927Z,32.75
2022-12-24T05:48:08.742Z,31.75
2022-12-24T05:50:36.390Z,36.40
2022-12-24T05:53:07.011Z,26.02
2022-12-24T05:55:34.406Z,25.08
2022-12-24T05:58:01.410Z,30.88
2022-12-24T06:00:28.113Z,27.05
2022-12-24T06:02:54.873Z,24.60
2022-12-24T06:05:21.662Z,50.25
2022-12-24T06:07:48.377Z,39.95
2022-12-24T06:10:15.105Z,27.55
2022-12-24T06:12:41.777Z,38.40
2022-12-24T06:15:09.744Z,32.15
2022-12-24T06:17:36.463Z,29.85
2022-12-24T06:20:03.974Z,34.92
2022-12-24T06:22:30.693Z,31.70
2022-12-24T06:24:57.415Z,26.52
2022-12-24T06:27:24.276Z,27.58
2022-12-24T06:29:51.033Z,31.60
2022-12-24T06:32:17.725Z,29.10
2022-12-24T06:34:44.407Z,28.38
2022-12-24T06:37:18.189Z,31.90
2022-12-24T06:39:46.458Z,21.15
2022-12-24T06:42:14.273Z,22.80
2022-12-24T06:44:41.264Z,29.13
2022-12-24T06:47:07.975Z,34.05
2022-12-24T06:49:34.698Z,26.27
2022-12-24T06:52:01.369Z,33.42
2022-12-24T06:54:28.020Z,32.95
2022-12-24T06:56:57.607Z,39.00
2022-12-24T06:59:24.611Z,38.30
2022-12-24T07:01:51.405Z,30.58
2022-12-24T07:04:20.304Z,35.80
2022-12-24T07:06:47.640Z,31.40
2022-12-24T07:09:14.608Z,28.23
2022-12-24T07:11:41.534Z,30.90
2022-12-24T07:14:08.303Z,35.75
2022-12-24T07:16:35.123Z,29.20
2022-12-24T07:19:02.003Z,37.00
2022-12-24T07:21:28.687Z,39.17
2022-12-24T07:23:55.379Z,36.78
2022-12-24T07:26:22.011Z,37.40
2022-12-24T07:28:49.048Z,35.95
2022-12-24T07:31:15.797Z,36.00
2022-12-24T07:33:42.490Z,35.28
2022-12-24T07:36:14.353Z,35.53
2022-12-24T07:38:41.526Z,27.38
2022-12-24T07:41:08.331Z,33.25
2022-12-24T07:43:35.093Z,31.83
2022-12-24T07:46:02.245Z,35.35
2022-12-24T07:48:30.273Z,35.33
2022-12-24T07:50:57.557Z,32.88
2022-12-24T07:53:25.787Z,30.45
2022-12-24T07:55:52.606Z,26.20
2022-12-24T07:58:19.584Z,31.83
2022-12-24T08:00:46.390Z,35.92
2022-12-24T08:03:20.797Z,37.13
2022-12-24T08:05:48.552Z,28.70
2022-12-24T08:08:15.517Z,41.25
2022-12-24T08:10:42.942Z,38.33
2022-12-24T08:13:09.622Z,28.48
2022-12-24T08:15:36.356Z,36.00
2022-12-24T08:18:03.351Z,32.13
2022-12-24T08:20:30.038Z,33.55
2022-12-24T08:22:56.848Z,37.85
2022-12-24T08:25:23.618Z,32.38
2022-12-24T08:27:50.347Z,33.22
2022-12-24T08:30:21.033Z,28.58
2022-12-24T08:32:48.464Z,34.63
2022-12-24T08:35:15.410Z,36.97
2022-12-24T08:37:42.144Z,31.77
2022-12-24T08:40:09.531Z,24.02
2022-12-24T08:42:36.466Z,28.40
2022-12-24T08:45:03.565Z,30.25
2022-12-24T08:47:30.300Z,36.97
2022-12-24T08:49:57.204Z,26.83
2022-12-24T08:52:24.198Z,34.85
2022-12-24T08:54:50.865Z,37.55
2022-12-24T08:57:17.569Z,24.23
2022-12-24T08:59:44.581Z,23.65
2022-12-24T09:02:12.314Z,23.98
2022-12-24T09:04:43.216Z,27.95
2022-12-24T09:07:10.737Z,28.38
2022-12-24T09:09:38.438Z,24.63
2022-12-24T09:12:06.868Z,32.17
2022-12-24T09:14:34.284Z,28.15
2022-12-24T09:17:01.151Z,29.85
2022-12-24T09:19:28.526Z,34.17
2022-12-24T09:21:55.212Z,34.40
2022-12-24T09:24:21.983Z,30.40
2022-12-24T09:26:55.646Z,31.13
2022-12-24T09:29:24.383Z,29.55
2022-12-24T09:31:51.242Z,28.52
2022-12-24T09:34:18.128Z,33.33
2022-12-24T09:36:46.200Z,31.58
2022-12-24T09:39:13.367Z,28.15
2022-12-24T09:42:01.740Z,30.30
2022-12-24T09:44:58.447Z,37.45
2022-12-24T09:47:42.989Z,35.22
2022-12-24T09:50:30.896Z,35.08
2022-12-24T09:53:01.197Z,35.97
2022-12-24T09:55:42.852Z,32.90
2022-12-24T09:58:23.527Z,31.08
2022-12-24T10:00:51.458Z,31.45
2022-12-24T10:03:18.481Z,33.25
2022-12-24T10:06:01.118Z,31.33
2022-12-24T10:08:39.513Z,32.47
2022-12-24T10:11:26.730Z,29.58
2022-12-24T10:14:21.876Z,35.92
2022-12-24T10:17:13.005Z,29.00
2022-12-24T10:19:52.263Z,33.15
2022-12-24T10:22:24.996Z,34.08
2022-12-24T10:25:17.668Z,32.08
2022-12-24T10:27:45.642Z,35.95
2022-12-24T10:30:20.464Z,28.48
2022-12-24T10:32:52.625Z,31.20
2022-12-24T10:35:25.675Z,31.90
2022-12-24T10:37:53.227Z,36.13
2022-12-24T10:40:34.872Z,38.50
2022-12-24T10:43:01.818Z,31.83
2022-12-24T10:45:39.618Z,35.28
2022-12-24T10:48:11.881Z,24.45
2022-12-24T10:50:50.489Z,29.52
2022-12-24T10:53:24.183Z,38.25
2022-12-24T10:56:00.623Z,34.22
2022-12-24T10:58:27.739Z,31.73
2022-12-24T11:00:54.508Z,41.05
2022-12-24T11:03:24.199Z,32.67
2022-12-24T11:06:12.552Z,41.22
2022-12-24T11:08:42.441Z,27.98
2022-12-24T11:11:12.733Z,34.22
2022-12-24T11:13:51.765Z,38.63
2022-12-24T11:16:23.294Z,31.15
2022-12-24T11:18:53.403Z,38.80
2022-12-24T11:21:30.025Z,34.45
2022-12-24T11:24:05.436Z,33.53
2022-12-24T11:26:32.596Z,34.22
2022-12-24T11:29:11.645Z,30.45
2022-12-24T11:31:38.499Z,31.05
2022-12-24T11:34:29.357Z,35.05
2022-12-24T11:37:15.507Z,39.97
2022-12-24T11:39:48.137Z,32.60
2022-12-24T11:45:04.080Z,30.80
2022-12-24T11:47:33.962Z,25.63
2022-12-24T11:50:35.244Z,35.20
2022-12-24T11:53:13.032Z,30.33
2022-12-24T11:55:50.622Z,36.45
2022-12-24T11:58:35.405Z,35.15
2022-12-24T12:01:33.071Z,26.33
2022-12-24T12:04:05.931Z,30.23
2022-12-24T12:06:49.416Z,23.38
2022-12-24T12:09:24.341Z,26.67
2022-12-24T12:11:56.862Z,33.33
2022-12-24T12:14:40.329Z,33.22
2022-12-24T12:17:22.864Z,29.65
2022-12-24T12:20:00.977Z,25.02
2022-12-24T12:22:35.160Z,42.17
2022-12-24T12:25:04.487Z,27.05
2022-12-24T12:27:38.736Z,24.42
2022-12-24T12:30:14.252Z,25.48
2022-12-24T12:33:09.337Z,22.05
2022-12-24T12:35:39.319Z,17.92
2022-12-24T12:38:21.941Z,29.15
2022-12-24T12:40:54.752Z,30.58
2022-12-24T12:43:40.174Z,41.97
2022-12-24T12:46:31.829Z,22.80
2022-12-24T12:49:02.439Z,25.10
2022-12-24T12:51:45.301Z,21.05
2022-12-24T12:54:17.836Z,23.90
2022-12-24T12:56:50.175Z,30.20
2022-12-24T12:59:22.430Z,22.98
2022-12-24T13:02:23.309Z,22.10
2022-12-24T13:04:56.133Z,22.25
2022-12-24T13:07:37.971Z,26.52
2022-12-24T13:10:46.436Z,16.08
2022-12-24T13:13:50.682Z,15.93
2022-12-24T13:16:39.773Z,26.00
2022-12-24T13:19:24.688Z,23.27
2022-12-24T13:21:54.943Z,19.00
2022-12-24T13:24:26.026Z,18.05
2022-12-24T13:27:06.137Z,18.27
2022-12-24T13:29:35.744Z,23.42
2022-12-24T13:32:20.614Z,20.50
2022-12-24T13:34:56.169Z,19.50
2022-12-24T13:37:34.736Z,25.23
2022-12-24T13:40:10.636Z,20.10
2022-12-24T13:43:04.605Z,15.75
2022-12-24T13:45:31.353Z,23.63
2022-12-24T13:48:12.956Z,19.25
2022-12-24T13:50:48.041Z,24.98
2022-12-24T13:53:33.090Z,26.40
2022-12-24T13:56:09.691Z,19.55
2022-12-24T13:58:39.736Z,24.70
2022-12-24T14:01:13.357Z,24.17
2022-12-24T14:03:52.541Z,27.77
2022-12-24T14:06:37.796Z,17.83
2022-12-24T14:09:18.829Z,23.67
2022-12-24T14:11:57.068Z,27.88
2022-12-24T14:14:33.076Z,21.30
2022-12-24T14:17:27.874Z,18.52
2022-12-24T14:19:59.831Z,18.65
2022-12-24T14:22:26.536Z,21.75
2022-12-24T14:25:16.371Z,19.20
2022-12-24T14:27:51.833Z,14.48
2022-12-24T14:30:25.213Z,24.35
2022-12-24T14:32:53.137Z,21.05
2022-12-24T14:35:35.366Z,19.13
2022-12-24T14:38:18.734Z,26.40
2022-12-24T14:41:20.654Z,19.48
2022-12-24T14:44:06.017Z,17.10
2022-12-24T14:46:39.802Z,23.63
2022-12-24T14:49:17.849Z,19.25
2022-12-24T14:52:18.404Z,17.48
2022-12-24T14:54:55.405Z,15.77
2022-12-24T14:57:26.564Z,16.50
2022-12-24T15:00:02.194Z,16.10
2022-12-24T15:02:45.895Z,11.43
2022-12-24T15:05:14.389Z,16.10
2022-12-24T15:07:47.799Z,19.95
2022-12-24T15:10:34.179Z,17.52
2022-12-24T15:13:36.612Z,13.18
2022-12-24T15:16:07.675Z,20.15
2022-12-24T15:18:37.869Z,20.80
2022-12-24T15:21:07.636Z,17.40
2022-12-24T15:23:36.921Z,14.43
2022-12-24T15:26:08.503Z,17.02
2022-12-24T15:28:38.267Z,14.80
2022-12-24T15:31:11.861Z,13.50
2022-12-24T15:33:39.053Z,26.42
2022-12-24T15:36:07.820Z,20.05
2022-12-24T15:38:43.912Z,17.42
2022-12-24T15:41:26.597Z,17.02
2022-12-24T15:43:59.088Z,13.23
2022-12-24T15:46:27.988Z,15.63
2022-12-24T15:48:56.794Z,10.38
2022-12-24T15:51:26.040Z,15.07
2022-12-24T15:53:59.024Z,13.80
2022-12-24T15:56:34.105Z,11.43
2022-12-24T15:59:18.808Z,15.45
2022-12-24T16:01:47.373Z,13.68
2022-12-24T16:04:23.096Z,10.35
2022-12-24T16:06:56.810Z,11.52
2022-12-24T16:09:35.097Z,18.02
2022-12-24T16:12:03.609Z,11.30
2022-12-24T16:14:32.936Z,11.77
2022-12-24T16:16:59.740Z,15.80
2022-12-24T16:19:39.436Z,14.60
2022-12-24T16:22:25.782Z,8.38
2022-12-24T16:24:52.681Z,13.60
2022-12-24T16:27:19.472Z,18.17
2022-12-24T16:29:46.830Z,9.40
2022-12-24T16:32:33.809Z,10.90
2022-12-24T16:35:03.156Z,13.48
2022-12-24T16:37:29.919Z,11.90
2022-12-24T16:39:57.125Z,14.77
2022-12-24T16:42:42.711Z,10.68
2022-12-24T16:45:10.693Z,11.18
2022-12-24T16:47:42.841Z,12.55
2022-12-24T16:50:16.786Z,16.70
2022-12-24T16:52:43.698Z,10.02
2022-12-24T16:55:13.960Z,18.70
2022-12-24T16:57:42.588Z,13.35
2022-12-24T17:00:21.452Z,14.77
2022-12-24T17:02:49.639Z,13.55
2022-12-24T17:05:17.020Z,11.90
2022-12-24T17:07:44.481Z,12.93
2022-12-24T17:10:14.806Z,12.02
2022-12-24T17:12:42.543Z,19.10
2022-12-24T17:15:09.926Z,16.23
2022-12-24T17:17:36.860Z,32.20
2022-12-24T17:20:04.711Z,16.52
2022-12-24T17:22:31.735Z,16.70
2022-12-24T17:24:58.569Z,26.63
2022-12-24T17:27:25.314Z,19.85
2022-12-24T17:29:52.090Z,23.58
2022-12-24T17:32:18.924Z,18.23
2022-12-24T17:34:45.835Z,18.17
2022-12-24T17:37:12.778Z,14.90
2022-12-24T17:39:39.513Z,16.60
2022-12-24T17:42:06.493Z,16.35
2022-12-24T17:44:33.355Z,14.90
2022-12-24T17:47:01.624Z,19.98
2022-12-24T17:49:28.711Z,17.40
2022-12-24T17:51:55.459Z,12.85
2022-12-24T17:54:22.320Z,11.90
2022-12-24T17:56:49.100Z,11.48
2022-12-24T17:59:16.059Z,18.02
2022-12-24T18:01:42.868Z,15.50
2022-12-24T18:04:10.933Z,14.63
2022-12-24T18:06:44.144Z,15.10
2022-12-24T18:12:02.606Z,18.50
2022-12-24T18:14:30.541Z,18.45
2022-12-24T18:16:57.294Z,18.75
2022-12-24T18:19:24.070Z,23.08
2022-12-24T18:21:50.926Z,19.23
2022-12-24T18:24:18.071Z,20.83
2022-12-24T18:26:48.338Z,14.02
2022-12-24T18:29:17.090Z,17.73
2022-12-24T18:31:43.889Z,16.20
2022-12-24T18:34:14.248Z,19.02
2022-12-24T18:36:41.219Z,18.63
2022-12-24T18:39:07.955Z,23.35
2022-12-24T18:41:35.920Z,24.13
2022-12-24T18:44:02.942Z,31.83
2022-12-24T18:46:31.913Z,24.67
2022-12-24T18:49:00.102Z,24.58
2022-12-24T18:51:30.191Z,17.88
2022-12-24T18:53:57.001Z,17.90
2022-12-24T18:56:25.361Z,21.20
2022-12-24T18:58:57.214Z,27.80
2022-12-24T19:01:27.051Z,22.40
2022-12-24T19:03:54.493Z,18.45
2022-12-24T19:06:22.085Z,29.75
2022-12-24T19:09:05.423Z,33.10
2022-12-24T19:11:34.485Z,32.33
2022-12-24T19:14:02.394Z,24.10
2022-12-24T19:16:30.862Z,27.88
2022-12-24T19:18:57.893Z,26.10
2022-12-24T19:21:24.851Z,27.75
2022-12-24T19:23:52.225Z,29.95
2022-12-24T19:26:20.108Z,22.65
2022-12-24T19:28:47.217Z,31.33
2022-12-24T19:31:16.905Z,24.05
2022-12-24T19:33:47.005Z,30.10
2022-12-24T19:36:17.130Z,33.55
2022-12-24T19:38:44.221Z,19.00
2022-12-24T19:41:19.350Z,19.60
2022-12-24T19:43:50.596Z,28.42
2022-12-24T19:46:20.281Z,14.20
2022-12-24T19:48:51.810Z,21.23
2022-12-24T19:51:19.056Z,24.65
2022-12-24T19:53:46.282Z,28.40
2022-12-24T19:56:18.029Z,28.33
2022-12-24T19:58:46.697Z,24.60
2022-12-24T20:01:16.676Z,26.38
2022-12-24T20:03:45.034Z,26.58
2022-12-24T20:06:12.984Z,24.30
2022-12-24T20:08:40.617Z,37.85
2022-12-24T20:11:09.130Z,33.17
2022-12-24T20:13:37.101Z,15.63
2022-12-24T20:16:19.403Z,27.42
2022-12-24T20:18:56.788Z,26.35
2022-12-24T20:21:24.603Z,25.35
2022-12-24T20:23:51.528Z,24.48
2022-12-24T20:26:20.283Z,15.68
2022-12-24T20:28:47.287Z,16.55
2022-12-24T20:31:17.258Z,21.90
2022-12-24T20:33:45.552Z,15.73
2022-12-24T20:36:15.811Z,20.27
2022-12-24T20:38:43.248Z,28.38
2022-12-24T20:41:13.502Z,20.58
2022-12-24T20:43:47.941Z,20.67
2022-12-24T20:46:19.347Z,20.98
2022-12-24T20:48:46.257Z,19.83
2022-12-24T20:51:25.341Z,25.25
2022-12-24T20:53:57.674Z,18.73
2022-12-24T20:56:25.091Z,20.52
2022-12-24T20:58:52.372Z,17.67
2022-12-24T21:01:24.274Z,16.02
2022-12-24T21:03:53.271Z,11.95
2022-12-24T21:06:20.358Z,12.68
2022-12-24T21:08:49.531Z,16.27
2022-12-24T21:11:35.289Z,12.57
2022-12-24T21:14:02.102Z,13.60
2022-12-24T21:16:30.834Z,15.00
2022-12-24T21:18:57.660Z,18.27
2022-12-24T21:21:24.501Z,16.25
2022-12-24T21:23:53.023Z,16.60
2022-12-24T21:26:19.681Z,22.45
2022-12-24T21:28:46.423Z,20.23
2022-12-24T21:31:14.428Z,26.00
2022-12-24T21:33:41.630Z,26.23
2022-12-24T21:36:10.111Z,26.05
2022-12-24T21:38:36.857Z,28.30
2022-12-24T21:41:06.696Z,25.88
2022-12-24T21:43:34.798Z,27.10
2022-12-24T21:46:05.927Z,27.92
2022-12-24T21:48:51.140Z,28.50
2022-12-24T21:51:17.874Z,29.48
2022-12-24T21:54:03.236Z,33.88
2022-12-24T21:56:29.983Z,26.90
2022-12-24T21:58:56.755Z,29.48
2022-12-24T22:01:23.834Z,27.92
2022-12-24T22:03:50.827Z,30.02
2022-12-24T22:06:36.335Z,27.15
2022-12-24T22:09:22.437Z,31.42
2022-12-24T22:11:54.411Z,30.63
2022-12-24T22:14:21.984Z,31.52
2022-12-24T22:16:48.837Z,32.15
2022-12-24T22:19:15.743Z,25.05
2022-12-24T22:21:42.517Z,30.27
2022-12-24T22:24:09.268Z,39.28
2022-12-24T22:26:35.952Z,26.10
2022-12-24T22:29:05.472Z,33.45
2022-12-24T22:31:32.604Z,19.83
2022-12-24T22:34:00.218Z,30.13
2022-12-24T22:36:30.248Z,35.03
2022-12-24T22:38:56.981Z,26.08
2022-12-24T22:41:27.338Z,26.17
2022-12-24T22:43:54.096Z,25.48
2022-12-24T22:46:23.018Z,21.75
2022-12-24T22:48:50.110Z,30.70
2022-12-24T22:51:19.646Z,25.23
2022-12-24T22:53:46.993Z,22.88
2022-12-24T22:56:20.130Z,26.48
2022-12-24T22:58:47.919Z,29.58
2022-12-24T23:01:14.662Z,26.67
2022-12-24T23:03:41.540Z,24.48
2022-12-24T23:06:08.420Z,32.97
2022-12-24T23:08:37.333Z,25.75
2022-12-24T23:11:12.708Z,21.35
2022-12-24T23:14:00.113Z,27.95
2022-12-24T23:16:28.817Z,23.42
2022-12-24T23:18:57.365Z,30.63
2022-12-24T23:21:24.466Z,28.35
2022-12-24T23:23:51.274Z,27.83
2022-12-24T23:26:20.754Z,33.63
2022-12-24T23:28:49.052Z,28.98
2022-12-24T23:31:17.185Z,22.67
2022-12-24T23:33:43.939Z,29.23
2022-12-24T23:36:10.779Z,26.50
2022-12-24T23:38:37.620Z,20.15
2022-12-24T23:41:06.357Z,28.75
2022-12-24T23:43:34.048Z,25.60
2022-12-24T23:46:01.479Z,30.80
2022-12-24T23:48:28.310Z,26.25
2022-12-24T23:51:08.762Z,32.45
2022-12-24T23:53:35.922Z,27.80
2022-12-24T23:56:03.342Z,25.52
2022-12-24T23:58:34.273Z,22.95
